createdAt,value
2023-05-14T00:00:26.756Z,100249.47
2023-05-14T00:02:54.267Z,100249.47
2023-05-14T00:05:21.428Z,100245.16
2023-05-14T00:07:48.314Z,100255.50
2023-05-14T00:10:15.324Z,100243.34
2023-05-14T00:12:42.513Z,100254.59
2023-05-14T00:15:09.809Z,100254.56
2023-05-14T00:17:37.496Z,100260.59
2023-05-14T00:20:07.253Z,100253.66
2023-05-14T00:22:34.976Z,100253.59
2023-05-14T00:25:01.962Z,100258.78
2023-05-14T00:27:31.484Z,100264.81
2023-05-14T00:29:58.492Z,100258.75
2023-05-14T00:32:25.630Z,100262.16
2023-05-14T00:34:52.777Z,100263.00
2023-05-14T00:37:19.860Z,100256.94
2023-05-14T00:39:47.004Z,100262.94
2023-05-14T00:42:14.089Z,100256.78
2023-05-14T00:44:41.190Z,100252.44
2023-05-14T00:47:08.561Z,100258.41
2023-05-14T00:49:35.836Z,100254.94
2023-05-14T00:52:02.810Z,100267.06
2023-05-14T00:54:29.903Z,100267.91
2023-05-14T00:56:56.841Z,100258.38
2023-05-14T00:59:23.986Z,100268.75
2023-05-14T01:01:51.129Z,100266.13
2023-05-14T01:04:18.685Z,100269.56
2023-05-14T01:07:02.727Z,100273.84
2023-05-14T01:09:36.470Z,100275.53
2023-05-14T01:12:27.105Z,100275.50
2023-05-14T01:15:13.461Z,100278.94
2023-05-14T01:17:47.280Z,100279.72
2023-05-14T01:20:14.851Z,100284.81
2023-05-14T01:22:41.827Z,100283.91
2023-05-14T01:25:09.946Z,100284.72
2023-05-14T01:27:50.307Z,100286.44
2023-05-14T01:30:24.382Z,100282.97
2023-05-14T01:32:53.434Z,100285.47
2023-05-14T01:35:22.573Z,100283.75
2023-05-14T01:37:49.807Z,100288.03
2023-05-14T01:40:16.903Z,100285.41
2023-05-14T01:42:43.988Z,100294.03
2023-05-14T01:45:11.162Z,100294.03
2023-05-14T01:47:38.173Z,100288.81
2023-05-14T01:50:05.585Z,100287.06
2023-05-14T01:52:32.747Z,100296.56
2023-05-14T01:55:00.227Z,100291.38
2023-05-14T01:57:27.364Z,100287.84
2023-05-14T01:59:54.295Z,100296.44
2023-05-14T02:02:21.607Z,100297.28
2023-05-14T02:04:48.666Z,100293.00
2023-05-14T02:07:15.773Z,100299.91
2023-05-14T02:09:42.844Z,100297.28
2023-05-14T02:12:11.150Z,100297.31
2023-05-14T02:14:38.321Z,100308.63
2023-05-14T02:17:05.858Z,100305.22
2023-05-14T02:19:33.123Z,100301.78
2023-05-14T02:22:01.236Z,100301.81
2023-05-14T02:24:28.490Z,100306.97
2023-05-14T02:26:55.800Z,100311.28
2023-05-14T02:29:23.569Z,100318.25
2023-05-14T02:31:50.637Z,100314.81
2023-05-14T02:34:17.627Z,100322.63
2023-05-14T02:36:44.617Z,100318.31
2023-05-14T02:39:11.791Z,100325.19
2023-05-14T02:41:38.897Z,100326.94
2023-05-14T02:44:06.117Z,100332.97
2023-05-14T02:46:33.467Z,100329.53
2023-05-14T02:49:03.036Z,100337.34
2023-05-14T02:51:30.059Z,100331.34
2023-05-14T02:53:57.122Z,100338.28
2023-05-14T02:56:24.216Z,100338.28
2023-05-14T02:58:51.293Z,100337.44
2023-05-14T03:01:18.937Z,100339.19
2023-05-14T03:03:46.495Z,100342.63
2023-05-14T03:06:13.648Z,100340.06
2023-05-14T03:08:41.768Z,100337.47
2023-05-14T03:11:08.800Z,100342.72
2023-05-14T03:13:35.824Z,100347.97
2023-05-14T03:16:02.834Z,100337.69
2023-05-14T03:18:30.870Z,100351.63
2023-05-14T03:20:58.149Z,100351.72
2023-05-14T03:23:25.148Z,100356.09
2023-05-14T03:25:52.733Z,100357.97
2023-05-14T03:28:19.825Z,100358.91
2023-05-14T03:30:46.960Z,100362.44
2023-05-14T03:33:14.080Z,100362.53
2023-05-14T03:35:41.131Z,100360.88
2023-05-14T03:38:08.260Z,100359.22
2023-05-14T03:40:35.344Z,100367.09
2023-05-14T03:43:02.595Z,100366.28
2023-05-14T03:45:30.501Z,100365.47
2023-05-14T03:47:59.333Z,100366.41
2023-05-14T03:50:26.935Z,100369.13
2023-05-14T03:52:55.039Z,100375.25
2023-05-14T03:55:22.113Z,100371.03
2023-05-14T03:57:49.187Z,100373.69
2023-05-14T04:00:16.478Z,100382.41
2023-05-14T04:02:46.379Z,100378.97
2023-05-14T04:05:13.523Z,100382.47
2023-05-14T04:07:40.551Z,100382.44
2023-05-14T04:10:08.184Z,100383.34
2023-05-14T04:12:36.513Z,100380.72
2023-05-14T04:15:04.272Z,100381.59
2023-05-14T04:17:34.569Z,100381.56
2023-05-14T04:20:02.160Z,100384.16
2023-05-14T04:22:30.290Z,100382.44
2023-05-14T04:24:57.200Z,100388.50
2023-05-14T04:27:24.327Z,100381.53
2023-05-14T04:29:51.377Z,100389.34
2023-05-14T04:32:18.636Z,100384.13
2023-05-14T04:34:46.980Z,100381.56
2023-05-14T04:37:14.130Z,100385.00
2023-05-14T04:39:41.192Z,100383.28
2023-05-14T04:42:08.258Z,100384.13
2023-05-14T04:44:36.360Z,100382.44
2023-05-14T04:47:04.352Z,100382.44
2023-05-14T04:49:31.378Z,100382.44
2023-05-14T04:51:58.646Z,100388.53
2023-05-14T04:54:25.790Z,100390.25
2023-05-14T04:56:53.015Z,100389.38
2023-05-14T04:59:20.164Z,100389.41
2023-05-14T05:01:47.434Z,100392.88
2023-05-14T05:04:14.755Z,100390.25
2023-05-14T05:06:41.886Z,100390.28
2023-05-14T05:09:09.553Z,100381.59
2023-05-14T05:11:36.540Z,100389.38
2023-05-14T05:14:03.569Z,100387.66
2023-05-14T05:16:30.857Z,100387.59
2023-05-14T05:18:58.178Z,100389.28
2023-05-14T05:21:25.302Z,100389.13
2023-05-14T05:23:52.353Z,100386.31
2023-05-14T05:26:19.382Z,100385.22
2023-05-14T05:28:46.497Z,100386.69
2023-05-14T05:31:13.426Z,100391.63
2023-05-14T05:33:40.572Z,100393.09
2023-05-14T05:36:07.778Z,100388.50
2023-05-14T05:38:34.888Z,100396.88
2023-05-14T05:41:02.041Z,100383.59
2023-05-14T05:43:29.141Z,100381.50
2023-05-14T05:45:56.552Z,100390.00
2023-05-14T05:48:23.559Z,100376.63
2023-05-14T05:50:51.635Z,100378.06
2023-05-14T05:53:18.653Z,100379.47
2023-05-14T05:55:45.684Z,100379.13
2023-05-14T05:58:15.747Z,100372.72
2023-05-14T06:00:43.046Z,100381.16
2023-05-14T06:03:10.023Z,100384.38
2023-05-14T06:05:37.320Z,100380.56
2023-05-14T06:08:04.813Z,100385.47
2023-05-14T06:10:32.132Z,100383.44
2023-05-14T06:12:59.164Z,100378.81
2023-05-14T06:15:26.161Z,100381.25
2023-05-14T06:17:53.254Z,100381.91
2023-05-14T06:20:20.430Z,100381.69
2023-05-14T06:22:47.513Z,100381.31
2023-05-14T06:25:14.434Z,100385.31
2023-05-14T06:27:41.614Z,100387.44
2023-05-14T06:30:09.226Z,100383.31
2023-05-14T06:32:36.380Z,100382.16
2023-05-14T06:35:04.252Z,100381.81
2023-05-14T06:37:33.471Z,100385.25
2023-05-14T06:40:01.441Z,100384.88
2023-05-14T06:42:28.967Z,100385.47
2023-05-14T06:44:56.226Z,100386.34
2023-05-14T06:47:23.286Z,100386.50
2023-05-14T06:49:50.488Z,100378.66
2023-05-14T06:52:17.399Z,100376.69
2023-05-14T06:54:44.436Z,100380.59
2023-05-14T06:57:11.400Z,100380.41
2023-05-14T06:59:38.496Z,100382.41
2023-05-14T07:02:05.629Z,100387.94
2023-05-14T07:04:32.708Z,100390.31
2023-05-14T07:06:59.812Z,100379.59
2023-05-14T07:09:26.703Z,100378.59
2023-05-14T07:11:53.878Z,100375.53
2023-05-14T07:14:21.094Z,100383.91
2023-05-14T07:16:48.170Z,100386.25
2023-05-14T07:19:15.268Z,100388.13
2023-05-14T07:21:42.391Z,100396.75
2023-05-14T07:24:09.444Z,100398.31
2023-05-14T07:26:37.042Z,100399.56
2023-05-14T07:29:03.959Z,100395.47
2023-05-14T07:31:31.061Z,100403.75
2023-05-14T07:33:58.264Z,100402.69
2023-05-14T07:36:25.400Z,100411.31
2023-05-14T07:38:52.422Z,100414.44
2023-05-14T07:41:19.472Z,100408.50
2023-05-14T07:43:46.374Z,100410.91
2023-05-14T07:46:13.337Z,100405.50
2023-05-14T07:48:40.600Z,100418.06
2023-05-14T07:51:07.865Z,100421.16
2023-05-14T07:53:34.835Z,100422.84
2023-05-14T07:56:01.829Z,100419.22
2023-05-14T07:58:29.017Z,100422.69
2023-05-14T08:00:56.722Z,100420.72
2023-05-14T08:03:24.095Z,100425.66
2023-05-14T08:05:52.524Z,100425.25
2023-05-14T08:08:19.810Z,100415.22
2023-05-14T08:10:46.915Z,100422.41
2023-05-14T08:13:13.883Z,100417.34
2023-05-14T08:15:40.948Z,100414.19
2023-05-14T08:18:08.028Z,100408.44
2023-05-14T08:20:35.209Z,100412.59
2023-05-14T08:23:02.271Z,100418.19
2023-05-14T08:25:29.396Z,100409.03
2023-05-14T08:27:56.461Z,100409.72
2023-05-14T08:30:23.771Z,100411.34
2023-05-14T08:32:51.296Z,100411.22
2023-05-14T08:35:18.360Z,100415.91
2023-05-14T08:37:45.614Z,100403.34
2023-05-14T08:40:12.742Z,100408.78
2023-05-14T08:42:45.071Z,100409.97
2023-05-14T08:45:22.160Z,100418.38
2023-05-14T08:47:50.660Z,100404.75
2023-05-14T08:50:21.024Z,100400.81
2023-05-14T08:52:49.633Z,100404.13
2023-05-14T08:55:16.666Z,100400.00
2023-05-14T08:57:43.812Z,100402.03
2023-05-14T09:00:11.952Z,100409.22
2023-05-14T09:02:42.492Z,100397.53
2023-05-14T09:05:10.003Z,100400.25
2023-05-14T09:07:37.033Z,100397.25
2023-05-14T09:10:04.893Z,100392.66
2023-05-14T09:12:34.007Z,100397.34
2023-05-14T09:15:01.120Z,100401.19
2023-05-14T09:17:29.273Z,100403.63
2023-05-14T09:19:56.552Z,100401.66
2023-05-14T09:22:23.627Z,100404.91
2023-05-14T09:25:05.524Z,100403.34
2023-05-14T09:27:34.936Z,100400.66
2023-05-14T09:30:12.794Z,100396.09
2023-05-14T09:32:41.340Z,100397.91
2023-05-14T09:35:18.874Z,100397.72
2023-05-14T09:37:47.110Z,100405.31
2023-05-14T09:40:14.649Z,100390.84
2023-05-14T09:42:41.728Z,100396.84
2023-05-14T09:45:09.699Z,100393.28
2023-05-14T09:47:37.428Z,100394.88
2023-05-14T09:50:05.406Z,100392.56
2023-05-14T09:52:32.678Z,100382.59
2023-05-14T09:55:00.313Z,100387.88
2023-05-14T09:57:27.515Z,100374.88
2023-05-14T09:59:54.585Z,100391.78
2023-05-14T10:02:36.971Z,100382.97
2023-05-14T10:05:05.953Z,100390.66
2023-05-14T10:07:44.674Z,100387.66
2023-05-14T10:10:15.788Z,100390.28
2023-05-14T10:12:44.799Z,100386.28
2023-05-14T10:15:20.861Z,100389.09
2023-05-14T10:17:50.054Z,100389.75
2023-05-14T10:20:17.834Z,100393.63
2023-05-14T10:22:44.936Z,100395.00
2023-05-14T10:25:12.186Z,100393.78
2023-05-14T10:27:39.417Z,100400.38
2023-05-14T10:30:11.264Z,100390.16
2023-05-14T10:32:38.282Z,100395.25
2023-05-14T10:35:20.684Z,100387.81
2023-05-14T10:37:48.230Z,100395.69
2023-05-14T10:40:15.445Z,100394.44
2023-05-14T10:42:43.628Z,100395.28
2023-05-14T10:45:12.005Z,100389.34
2023-05-14T10:47:40.294Z,100393.09
2023-05-14T10:50:10.823Z,100395.13
2023-05-14T10:52:37.960Z,100386.69
2023-05-14T10:55:09.316Z,100384.97
2023-05-14T10:57:38.441Z,100391.97
2023-05-14T11:00:07.797Z,100387.75
2023-05-14T11:02:39.703Z,100390.53
2023-05-14T11:05:08.713Z,100382.78
2023-05-14T11:07:36.998Z,100391.59
2023-05-14T11:10:08.447Z,100380.94
2023-05-14T11:12:37.092Z,100387.84
2023-05-14T11:15:06.429Z,100387.03
2023-05-14T11:17:34.867Z,100379.97
2023-05-14T11:20:01.897Z,100378.84
2023-05-14T11:22:32.869Z,100375.16
2023-05-14T11:25:00.040Z,100385.03
2023-05-14T11:27:27.182Z,100382.78
2023-05-14T11:29:55.988Z,100378.19
2023-05-14T11:32:23.244Z,100376.44
2023-05-14T11:34:51.338Z,100375.78
2023-05-14T11:37:18.582Z,100375.88
2023-05-14T11:39:49.797Z,100374.25
2023-05-14T11:42:18.799Z,100378.03
2023-05-14T11:44:50.108Z,100385.16
2023-05-14T11:47:18.416Z,100375.84
2023-05-14T11:49:45.833Z,100375.28
2023-05-14T11:52:19.526Z,100369.91
2023-05-14T11:54:47.195Z,100377.00
2023-05-14T11:57:19.645Z,100376.28
2023-05-14T11:59:47.723Z,100375.56
2023-05-14T12:02:18.798Z,100378.34
2023-05-14T12:04:50.184Z,100373.09
2023-05-14T12:07:17.279Z,100380.19
2023-05-14T12:09:50.128Z,100375.13
2023-05-14T12:12:21.626Z,100374.47
2023-05-14T12:14:49.385Z,100366.75
2023-05-14T12:17:17.458Z,100371.19
2023-05-14T12:19:45.163Z,100369.53
2023-05-14T12:22:12.638Z,100365.25
2023-05-14T12:24:39.735Z,100369.06
2023-05-14T12:27:07.141Z,100369.25
2023-05-14T12:29:39.061Z,100372.78
2023-05-14T12:32:09.590Z,100374.56
2023-05-14T12:34:37.790Z,100373.91
2023-05-14T12:37:06.200Z,100362.66
2023-05-14T12:39:34.049Z,100373.22
2023-05-14T12:42:01.634Z,100376.16
2023-05-14T12:44:29.961Z,100376.25
2023-05-14T12:46:57.854Z,100377.16
2023-05-14T12:49:25.120Z,100374.53
2023-05-14T12:51:59.617Z,100374.84
2023-05-14T12:54:35.336Z,100380.38
2023-05-14T12:57:03.840Z,100386.66
2023-05-14T12:59:31.134Z,100382.56
2023-05-14T13:01:58.230Z,100385.34
2023-05-14T13:04:27.591Z,100379.44
2023-05-14T13:07:01.057Z,100384.88
2023-05-14T13:09:28.222Z,100380.59
2023-05-14T13:11:55.359Z,100379.75
2023-05-14T13:14:22.396Z,100374.25
2023-05-14T13:16:49.483Z,100388.00
2023-05-14T13:19:16.764Z,100385.16
2023-05-14T13:21:44.032Z,100383.38
2023-05-14T13:24:11.118Z,100389.31
2023-05-14T13:26:38.150Z,100383.06
2023-05-14T13:29:05.362Z,100383.91
2023-05-14T13:31:32.738Z,100390.09
2023-05-14T13:34:00.130Z,100390.41
2023-05-14T13:36:27.133Z,100391.41
2023-05-14T13:38:54.179Z,100390.34
2023-05-14T13:41:21.766Z,100394.75
2023-05-14T13:43:48.760Z,100393.19
2023-05-14T13:46:15.757Z,100390.06
2023-05-14T13:48:42.707Z,100392.06
2023-05-14T13:51:09.793Z,100386.88
2023-05-14T13:53:36.940Z,100387.00
2023-05-14T13:56:06.566Z,100388.78
2023-05-14T13:58:33.549Z,100386.44
2023-05-14T14:01:00.777Z,100391.00
2023-05-14T14:03:27.840Z,100393.78
2023-05-14T14:05:54.911Z,100393.19
2023-05-14T14:08:24.360Z,100396.03
2023-05-14T14:10:52.599Z,100397.91
2023-05-14T14:13:21.311Z,100397.16
2023-05-14T14:15:48.831Z,100405.91
2023-05-14T14:18:16.012Z,100397.22
2023-05-14T14:20:43.190Z,100400.66
2023-05-14T14:23:16.816Z,100398.00
2023-05-14T14:25:44.323Z,100394.41
2023-05-14T14:28:11.349Z,100397.00
2023-05-14T14:30:38.445Z,100402.41
2023-05-14T14:33:05.574Z,100398.19
2023-05-14T14:35:33.593Z,100405.25
2023-05-14T14:38:00.550Z,100406.06
2023-05-14T14:40:27.678Z,100405.09
2023-05-14T14:42:54.756Z,100406.00
2023-05-14T14:45:21.937Z,100412.09
2023-05-14T14:47:49.531Z,100413.09
2023-05-14T14:50:16.696Z,100411.38
2023-05-14T14:52:45.598Z,100410.56
2023-05-14T14:55:13.139Z,100416.66
2023-05-14T14:57:40.270Z,100407.00
2023-05-14T15:00:07.766Z,100415.69
2023-05-14T15:02:35.830Z,100405.25
2023-05-14T15:05:02.863Z,100408.75
2023-05-14T15:07:33.097Z,100407.91
2023-05-14T15:10:00.393Z,100404.41
2023-05-14T15:12:27.430Z,100407.91
2023-05-14T15:14:54.326Z,100406.97
2023-05-14T15:17:21.834Z,100407.91
2023-05-14T15:19:48.849Z,100405.41
2023-05-14T15:22:16.059Z,100405.47
2023-05-14T15:24:43.088Z,100404.66
2023-05-14T15:27:10.451Z,100402.06
2023-05-14T15:29:37.596Z,100406.50
2023-05-14T15:32:04.862Z,100403.09
2023-05-14T15:34:32.281Z,100404.88
2023-05-14T15:36:59.246Z,100404.91
2023-05-14T15:39:26.923Z,100404.03
2023-05-14T15:41:55.313Z,100404.94
2023-05-14T15:44:22.499Z,100394.50
2023-05-14T15:46:49.727Z,100402.38
2023-05-14T15:49:17.008Z,100401.53
2023-05-14T15:51:44.054Z,100400.72
2023-05-14T15:54:11.083Z,100400.78
2023-05-14T15:56:38.195Z,100396.44
2023-05-14T15:59:05.121Z,100389.53
2023-05-14T16:01:32.249Z,100392.19
2023-05-14T16:03:59.259Z,100396.56
2023-05-14T16:06:26.319Z,100389.63
2023-05-14T16:08:53.426Z,100391.38
2023-05-14T16:11:21.552Z,100393.16
2023-05-14T16:13:48.681Z,100401.00
2023-05-14T16:16:16.179Z,100398.44
2023-05-14T16:18:43.359Z,100400.22
2023-05-14T16:21:10.279Z,100405.50
2023-05-14T16:23:37.292Z,100406.41
2023-05-14T16:26:05.220Z,100402.09
2023-05-14T16:28:32.329Z,100406.47
2023-05-14T16:31:00.850Z,100404.75
2023-05-14T16:33:29.250Z,100411.72
2023-05-14T16:35:56.268Z,100411.75
2023-05-14T16:38:24.470Z,100410.06
2023-05-14T16:40:51.437Z,100421.41
2023-05-14T16:43:18.610Z,100418.81
2023-05-14T16:45:45.596Z,100424.91
2023-05-14T16:48:12.645Z,100429.22
2023-05-14T16:50:39.764Z,100424.91
2023-05-14T16:53:06.812Z,100433.56
2023-05-14T16:55:33.895Z,100432.72
2023-05-14T16:58:00.805Z,100431.88
2023-05-14T17:00:27.865Z,100434.47
2023-05-14T17:02:55.082Z,100437.09
2023-05-14T17:05:22.220Z,100437.94
2023-05-14T17:07:49.388Z,100443.16
2023-05-14T17:10:16.521Z,100447.50
2023-05-14T17:12:43.704Z,100446.66
2023-05-14T17:15:11.175Z,100456.19
2023-05-14T17:17:38.393Z,100451.84
2023-05-14T17:20:06.551Z,100454.44
2023-05-14T17:22:33.481Z,100453.59
2023-05-14T17:25:00.434Z,100456.19
2023-05-14T17:27:29.300Z,100460.53
2023-05-14T17:29:56.303Z,100455.28
2023-05-14T17:32:23.512Z,100458.78
2023-05-14T17:34:51.178Z,100459.63
2023-05-14T17:37:18.325Z,100463.94
2023-05-14T17:39:45.363Z,100463.94
2023-05-14T17:42:13.620Z,100470.88
2023-05-14T17:44:40.690Z,100476.94
2023-05-14T17:47:08.895Z,100467.41
2023-05-14T17:49:35.888Z,100474.28
2023-05-14T17:52:02.988Z,100475.16
2023-05-14T17:54:30.091Z,100478.59
2023-05-14T17:56:57.170Z,100480.34
2023-05-14T17:59:24.553Z,100477.75
2023-05-14T18:01:51.693Z,100485.53
2023-05-14T18:04:18.739Z,100480.31
2023-05-14T18:06:45.956Z,100475.97
2023-05-14T18:09:12.960Z,100469.88
2023-05-14T18:11:39.994Z,100483.72
2023-05-14T18:14:07.133Z,100484.56
2023-05-14T18:16:34.308Z,100482.81
2023-05-14T18:19:01.526Z,100490.53
2023-05-14T18:21:28.622Z,100485.31
2023-05-14T18:23:56.077Z,100485.31
2023-05-14T18:26:23.255Z,100487.00
2023-05-14T18:28:50.486Z,100488.72
2023-05-14T18:31:17.577Z,100492.16
2023-05-14T18:33:44.569Z,100492.16
2023-05-14T18:36:11.698Z,100489.50
2023-05-14T18:38:38.740Z,100489.50
2023-05-14T18:41:05.758Z,100486.94
2023-05-14T18:43:32.930Z,100487.78
2023-05-14T18:46:00.009Z,100490.38
2023-05-14T18:48:27.218Z,100494.66
2023-05-14T18:50:54.620Z,100491.16
2023-05-14T18:53:21.702Z,100496.28
2023-05-14T18:55:48.688Z,100494.53
2023-05-14T18:58:16.631Z,100491.91
2023-05-14T19:00:45.141Z,100496.22
2023-05-14T19:03:16.325Z,100500.47
2023-05-14T19:05:43.506Z,100497.00
2023-05-14T19:08:11.638Z,100501.31
2023-05-14T19:10:39.296Z,100496.97
2023-05-14T19:13:06.629Z,100496.94
2023-05-14T19:15:33.784Z,100496.03
2023-05-14T19:18:00.979Z,100498.56
2023-05-14T19:20:28.354Z,100493.34
2023-05-14T19:22:55.408Z,100501.09
2023-05-14T19:25:22.492Z,100495.88
2023-05-14T19:27:58.008Z,100507.03
2023-05-14T19:30:26.139Z,100499.16
2023-05-14T19:32:55.992Z,100501.69
2023-05-14T19:35:23.757Z,100495.63
2023-05-14T19:37:51.479Z,100494.66
2023-05-14T19:40:19.087Z,100500.69
2023-05-14T19:42:46.481Z,100491.97
2023-05-14T19:45:14.348Z,100504.06
2023-05-14T19:47:43.216Z,100497.94
2023-05-14T19:50:16.646Z,100499.56
2023-05-14T19:52:44.788Z,100507.25
2023-05-14T19:55:12.619Z,100497.63
2023-05-14T19:57:40.457Z,100503.59
2023-05-14T20:00:13.820Z,100494.03
2023-05-14T20:02:44.389Z,100496.56
2023-05-14T20:05:12.486Z,100501.66
2023-05-14T20:07:40.604Z,100498.13
2023-05-14T20:10:09.447Z,100496.38
2023-05-14T20:12:37.451Z,100496.34
2023-05-14T20:15:10.074Z,100496.25
2023-05-14T20:17:41.943Z,100497.09
2023-05-14T20:20:13.950Z,100496.19
2023-05-14T20:22:44.308Z,100494.41
2023-05-14T20:25:11.499Z,100495.22
2023-05-14T20:27:38.588Z,100496.97
2023-05-14T20:30:06.496Z,100495.19
2023-05-14T20:32:33.478Z,100502.03
2023-05-14T20:35:02.286Z,100493.38
2023-05-14T20:37:34.812Z,100502.84
2023-05-14T20:40:06.129Z,100508.88
2023-05-14T20:42:33.284Z,100508.78
2023-05-14T20:45:00.438Z,100509.63
2023-05-14T20:47:30.570Z,100510.47
2023-05-14T20:49:57.813Z,100510.44
2023-05-14T20:52:24.941Z,100508.63
2023-05-14T20:54:52.168Z,100518.03
2023-05-14T20:57:19.439Z,100516.25
2023-05-14T20:59:46.731Z,100517.94
2023-05-14T21:02:14.166Z,100517.00
2023-05-14T21:04:41.514Z,100513.50
2023-05-14T21:07:08.644Z,100512.59
2023-05-14T21:09:35.573Z,100515.13
2023-05-14T21:12:02.476Z,100510.78
2023-05-14T21:14:29.618Z,100505.63
2023-05-14T21:16:56.703Z,100514.25
2023-05-14T21:19:23.740Z,100521.09
2023-05-14T21:21:50.900Z,100514.19
2023-05-14T21:24:19.097Z,100515.03
2023-05-14T21:26:46.488Z,100511.59
2023-05-14T21:29:13.541Z,100517.66
2023-05-14T21:31:40.917Z,100516.72
2023-05-14T21:34:07.999Z,100515.81
2023-05-14T21:36:35.158Z,100513.13
2023-05-14T21:39:02.185Z,100520.78
2023-05-14T21:41:31.521Z,100517.28
2023-05-14T21:43:58.628Z,100519.81
2023-05-14T21:46:25.970Z,100518.97
2023-05-14T21:48:53.102Z,100521.50
2023-05-14T21:51:20.506Z,100519.69
2023-05-14T21:53:48.449Z,100511.81
2023-05-14T21:56:15.640Z,100516.94
2023-05-14T21:58:42.601Z,100509.97
2023-05-14T22:01:11.514Z,100512.63
2023-05-14T22:03:38.696Z,100516.19
2023-05-14T22:06:05.904Z,100511.84
2023-05-14T22:08:33.030Z,100507.50
2023-05-14T22:11:00.181Z,100515.25
2023-05-14T22:13:27.104Z,100511.81
2023-05-14T22:16:01.538Z,100514.28
2023-05-14T22:18:39.028Z,100518.44
2023-05-14T22:21:06.265Z,100513.22
2023-05-14T22:23:33.331Z,100513.16
2023-05-14T22:26:00.426Z,100521.72
2023-05-14T22:28:27.430Z,100514.81
2023-05-14T22:30:55.254Z,100512.16
2023-05-14T22:33:22.537Z,100514.72
2023-05-14T22:35:49.563Z,100506.84
2023-05-14T22:38:16.733Z,100511.09
2023-05-14T22:40:43.770Z,100513.66
2023-05-14T22:43:10.973Z,100513.66
2023-05-14T22:45:38.011Z,100510.22
2023-05-14T22:48:05.154Z,100513.66
2023-05-14T22:50:32.169Z,100515.38
2023-05-14T22:52:59.138Z,100515.38
2023-05-14T22:55:26.514Z,100515.38
2023-05-14T22:57:53.649Z,100506.78
2023-05-14T23:00:20.571Z,100505.09
2023-05-14T23:02:47.620Z,100516.28
2023-05-14T23:05:14.876Z,100511.22
2023-05-14T23:07:41.920Z,100513.94
2023-05-14T23:10:09.344Z,100510.44
2023-05-14T23:12:36.458Z,100520.75
2023-05-14T23:15:03.786Z,100517.19
2023-05-14T23:17:37.473Z,100509.44
2023-05-14T23:20:10.644Z,100522.31
2023-05-14T23:22:37.665Z,100514.44
2023-05-14T23:25:05.325Z,100512.56
2023-05-14T23:27:32.546Z,100506.53
2023-05-14T23:29:59.699Z,100510.94
2023-05-14T23:32:26.901Z,100515.44
2023-05-14T23:34:54.046Z,100514.66
2023-05-14T23:37:21.049Z,100513.81
2023-05-14T23:39:48.052Z,100511.19
2023-05-14T23:42:15.081Z,100519.75
2023-05-14T23:44:42.110Z,100518.75
2023-05-14T23:47:09.138Z,100517.84
2023-05-14T23:49:36.674Z,100516.22
2023-05-14T23:52:03.829Z,100523.97
2023-05-14T23:54:30.911Z,100521.34
2023-05-14T23:56:57.908Z,100524.69
2023-05-14T23:59:24.841Z,100517.66
